Terminal Aerodrome Forecast
Issued by NWS

Home | Current Version | Previous Version | Text Only | Print | Product List | Glossary On
Versions: 1 2 3 4 5 6 7 8 9 10 11 12 13 14 15 16 17 18
000
FTUS41 KPHI 282300
TAFMIV
TAF
KMIV 282333Z 2900/2924 30003KT P6SM SKC
     FM290700 00000KT P6SM BKN100
      TEMPO 2912/2914 BKN070
     FM291700 21005KT P6SM BKN200=

USA.gov is the U.S. government's official web portal to all federal, state and local government web resources and services.